sensor_id;sensor_type;location;lat;lon;timestamp;temperature;humidity
44817;DHT22;30529;53.570;9.964;2022-11-20T00:01:12;2.70;99.90
44817;DHT22;30529;53.570;9.964;2022-11-20T00:03:39;2.80;99.90
44817;DHT22;30529;53.570;9.964;2022-11-20T00:06:12;2.80;99.90
44817;DHT22;30529;53.570;9.964;2022-11-20T00:08:38;2.70;99.90
44817;DHT22;30529;53.570;9.964;2022-11-20T00:11:06;2.70;99.90
44817;DHT22;30529;53.570;9.964;2022-11-20T00:13:33;2.70;99.90
44817;DHT22;30529;53.570;9.964;2022-11-20T00:16:01;2.70;99.90
44817;DHT22;30529;53.570;9.964;2022-11-20T00:18:27;2.70;99.90
44817;DHT22;30529;53.570;9.964;2022-11-20T00:21:03;2.70;99.90
44817;DHT22;30529;53.570;9.964;2022-11-20T00:23:30;2.80;99.90
44817;DHT22;30529;53.570;9.964;2022-11-20T00:25:56;2.80;99.90
44817;DHT22;30529;53.570;9.964;2022-11-20T00:28:26;2.70;99.90
44817;DHT22;30529;53.570;9.964;2022-11-20T00:30:54;2.70;99.90
44817;DHT22;30529;53.570;9.964;2022-11-20T00:33:25;2.70;99.90
44817;DHT22;30529;53.570;9.964;2022-11-20T00:35:51;2.70;99.90
44817;DHT22;30529;53.570;9.964;2022-11-20T00:38:17;2.80;99.90
44817;DHT22;30529;53.570;9.964;2022-11-20T00:40:43;2.80;99.90
44817;DHT22;30529;53.570;9.964;2022-11-20T00:43:10;2.80;99.90
44817;DHT22;30529;53.570;9.964;2022-11-20T00:45:36;2.80;99.90
44817;DHT22;30529;53.570;9.964;2022-11-20T00:48:02;2.70;99.90
44817;DHT22;30529;53.570;9.964;2022-11-20T00:50:28;2.70;99.90
44817;DHT22;30529;53.570;9.964;2022-11-20T00:52:54;2.70;99.90
44817;DHT22;30529;53.570;9.964;2022-11-20T00:55:21;2.80;99.90
44817;DHT22;30529;53.570;9.964;2022-11-20T00:57:47;2.80;99.90
44817;DHT22;30529;53.570;9.964;2022-11-20T01:00:14;2.80;99.90
44817;DHT22;30529;53.570;9.964;2022-11-20T01:02:40;2.80;99.90
44817;DHT22;30529;53.570;9.964;2022-11-20T01:05:06;2.70;99.90
44817;DHT22;30529;53.570;9.964;2022-11-20T01:07:32;2.80;99.90
44817;DHT22;30529;53.570;9.964;2022-11-20T01:09:59;2.70;99.90
44817;DHT22;30529;53.570;9.964;2022-11-20T01:12:25;2.70;99.90
44817;DHT22;30529;53.570;9.964;2022-11-20T01:14:51;2.70;99.90
44817;DHT22;30529;53.570;9.964;2022-11-20T01:17:17;2.70;99.90
44817;DHT22;30529;53.570;9.964;2022-11-20T01:19:43;2.80;99.90
44817;DHT22;30529;53.570;9.964;2022-11-20T01:22:09;2.80;99.90
44817;DHT22;30529;53.570;9.964;2022-11-20T01:24:36;2.80;99.90
44817;DHT22;30529;53.570;9.964;2022-11-20T01:27:02;2.70;99.90
44817;DHT22;30529;53.570;9.964;2022-11-20T01:29:28;2.80;99.90
44817;DHT22;30529;53.570;9.964;2022-11-20T01:31:54;2.80;99.90
44817;DHT22;30529;53.570;9.964;2022-11-20T01:34:21;2.80;99.90
44817;DHT22;30529;53.570;9.964;2022-11-20T01:36:49;2.80;99.90
44817;DHT22;30529;53.570;9.964;2022-11-20T01:39:26;2.80;99.90
44817;DHT22;30529;53.570;9.964;2022-11-20T01:41:54;2.90;99.90
44817;DHT22;30529;53.570;9.964;2022-11-20T01:45:00;2.90;99.90
44817;DHT22;30529;53.570;9.964;2022-11-20T01:47:40;2.80;99.90
44817;DHT22;30529;53.570;9.964;2022-11-20T01:50:12;2.70;99.90
44817;DHT22;30529;53.570;9.964;2022-11-20T01:52:44;2.70;99.90
44817;DHT22;30529;53.570;9.964;2022-11-20T01:55:17;2.70;99.90
44817;DHT22;30529;53.570;9.964;2022-11-20T01:57:45;2.70;99.90
44817;DHT22;30529;53.570;9.964;2022-11-20T02:00:16;2.70;99.90
44817;DHT22;30529;53.570;9.964;2022-11-20T02:02:45;2.70;99.90
44817;DHT22;30529;53.570;9.964;2022-11-20T02:05:35;2.60;99.90
44817;DHT22;30529;53.570;9.964;2022-11-20T02:08:04;2.60;99.90
44817;DHT22;30529;53.570;9.964;2022-11-20T02:10:31;2.70;99.90
44817;DHT22;30529;53.570;9.964;2022-11-20T02:12:58;2.70;99.90
44817;DHT22;30529;53.570;9.964;2022-11-20T02:15:43;2.60;99.90
44817;DHT22;30529;53.570;9.964;2022-11-20T02:18:11;2.60;99.90
44817;DHT22;30529;53.570;9.964;2022-11-20T02:20:42;2.60;99.90
44817;DHT22;30529;53.570;9.964;2022-11-20T02:25:37;2.70;99.90
44817;DHT22;30529;53.570;9.964;2022-11-20T02:28:04;2.70;99.90
44817;DHT22;30529;53.570;9.964;2022-11-20T02:30:31;2.70;99.90
44817;DHT22;30529;53.570;9.964;2022-11-20T02:32:58;2.70;99.90
44817;DHT22;30529;53.570;9.964;2022-11-20T02:37:53;2.80;99.90
44817;DHT22;30529;53.570;9.964;2022-11-20T02:40:20;2.80;99.90
44817;DHT22;30529;53.570;9.964;2022-11-20T02:42:46;2.80;99.90
44817;DHT22;30529;53.570;9.964;2022-11-20T02:45:12;2.80;99.90
44817;DHT22;30529;53.570;9.964;2022-11-20T02:47:39;2.80;99.90
44817;DHT22;30529;53.570;9.964;2022-11-20T02:50:05;2.80;99.90
44817;DHT22;30529;53.570;9.964;2022-11-20T02:52:32;2.80;99.90
44817;DHT22;30529;53.570;9.964;2022-11-20T02:54:58;2.80;99.90
44817;DHT22;30529;53.570;9.964;2022-11-20T02:57:24;2.80;99.90
44817;DHT22;30529;53.570;9.964;2022-11-20T02:59:50;2.80;99.90
44817;DHT22;30529;53.570;9.964;2022-11-20T03:02:16;2.80;99.90
44817;DHT22;30529;53.570;9.964;2022-11-20T03:04:42;2.70;99.90
44817;DHT22;30529;53.570;9.964;2022-11-20T03:07:09;2.70;99.90
44817;DHT22;30529;53.570;9.964;2022-11-20T03:09:35;2.60;99.90
44817;DHT22;30529;53.570;9.964;2022-11-20T03:12:02;2.60;99.90
44817;DHT22;30529;53.570;9.964;2022-11-20T03:14:28;2.60;99.90
44817;DHT22;30529;53.570;9.964;2022-11-20T03:16:55;2.60;99.90
44817;DHT22;30529;53.570;9.964;2022-11-20T03:19:21;2.60;99.90
44817;DHT22;30529;53.570;9.964;2022-11-20T03:21:47;2.60;99.90
44817;DHT22;30529;53.570;9.964;2022-11-20T03:24:14;2.60;99.90
44817;DHT22;30529;53.570;9.964;2022-11-20T03:26:40;2.70;99.90
44817;DHT22;30529;53.570;9.964;2022-11-20T03:29:06;2.70;99.90
44817;DHT22;30529;53.570;9.964;2022-11-20T03:31:36;2.70;99.90
44817;DHT22;30529;53.570;9.964;2022-11-20T03:34:03;2.70;99.90
44817;DHT22;30529;53.570;9.964;2022-11-20T03:36:30;2.70;99.90
44817;DHT22;30529;53.570;9.964;2022-11-20T03:38:57;2.60;99.90
44817;DHT22;30529;53.570;9.964;2022-11-20T03:41:25;2.60;99.90
44817;DHT22;30529;53.570;9.964;2022-11-20T03:43:54;2.60;99.90
44817;DHT22;30529;53.570;9.964;2022-11-20T03:46:21;2.60;99.90
44817;DHT22;30529;53.570;9.964;2022-11-20T03:48:47;2.70;99.90
44817;DHT22;30529;53.570;9.964;2022-11-20T03:51:19;2.70;99.90
44817;DHT22;30529;53.570;9.964;2022-11-20T03:53:47;2.70;99.90
44817;DHT22;30529;53.570;9.964;2022-11-20T03:56:15;2.60;99.90
44817;DHT22;30529;53.570;9.964;2022-11-20T03:58:42;2.60;99.90
44817;DHT22;30529;53.570;9.964;2022-11-20T04:01:11;2.60;99.90
44817;DHT22;30529;53.570;9.964;2022-11-20T04:03:38;2.60;99.90
44817;DHT22;30529;53.570;9.964;2022-11-20T04:06:07;2.60;99.90
44817;DHT22;30529;53.570;9.964;2022-11-20T04:08:34;2.60;99.90
44817;DHT22;30529;53.570;9.964;2022-11-20T04:11:21;2.60;99.90
44817;DHT22;30529;53.570;9.964;2022-11-20T04:14:11;2.60;99.90
44817;DHT22;30529;53.570;9.964;2022-11-20T04:16:38;2.60;99.90
44817;DHT22;30529;53.570;9.964;2022-11-20T04:19:08;2.60;99.90
44817;DHT22;30529;53.570;9.964;2022-11-20T04:21:35;2.60;99.90
44817;DHT22;30529;53.570;9.964;2022-11-20T04:24:01;2.60;99.90
44817;DHT22;30529;53.570;9.964;2022-11-20T04:26:29;2.60;99.90
44817;DHT22;30529;53.570;9.964;2022-11-20T04:28:56;2.60;99.90
44817;DHT22;30529;53.570;9.964;2022-11-20T04:31:25;2.50;99.90
44817;DHT22;30529;53.570;9.964;2022-11-20T04:33:52;2.60;99.90
44817;DHT22;30529;53.570;9.964;2022-11-20T04:36:28;2.50;99.90
44817;DHT22;30529;53.570;9.964;2022-11-20T04:39:06;2.50;99.90
44817;DHT22;30529;53.570;9.964;2022-11-20T04:41:35;2.50;99.90
44817;DHT22;30529;53.570;9.964;2022-11-20T04:44:03;2.50;99.90
44817;DHT22;30529;53.570;9.964;2022-11-20T04:46:31;2.50;99.90
44817;DHT22;30529;53.570;9.964;2022-11-20T04:48:58;2.50;99.90
44817;DHT22;30529;53.570;9.964;2022-11-20T04:51:24;2.50;99.90
44817;DHT22;30529;53.570;9.964;2022-11-20T04:53:50;2.50;99.90
44817;DHT22;30529;53.570;9.964;2022-11-20T04:56:17;2.40;99.90
44817;DHT22;30529;53.570;9.964;2022-11-20T04:58:43;2.50;99.90
44817;DHT22;30529;53.570;9.964;2022-11-20T05:01:12;2.40;99.90
44817;DHT22;30529;53.570;9.964;2022-11-20T05:03:40;2.50;99.90
44817;DHT22;30529;53.570;9.964;2022-11-20T05:06:07;2.50;99.90
44817;DHT22;30529;53.570;9.964;2022-11-20T05:08:33;2.40;99.90
44817;DHT22;30529;53.570;9.964;2022-11-20T05:11:04;2.40;99.90
44817;DHT22;30529;53.570;9.964;2022-11-20T05:13:31;2.40;99.90
44817;DHT22;30529;53.570;9.964;2022-11-20T05:16:08;2.40;99.90
44817;DHT22;30529;53.570;9.964;2022-11-20T05:18:35;2.40;99.90
44817;DHT22;30529;53.570;9.964;2022-11-20T05:21:02;2.40;99.90
44817;DHT22;30529;53.570;9.964;2022-11-20T05:23:29;2.40;99.90
44817;DHT22;30529;53.570;9.964;2022-11-20T05:25:57;2.40;99.90
44817;DHT22;30529;53.570;9.964;2022-11-20T05:28:23;2.30;99.90
44817;DHT22;30529;53.570;9.964;2022-11-20T05:30:50;2.30;99.90
44817;DHT22;30529;53.570;9.964;2022-11-20T05:33:16;2.30;99.90
44817;DHT22;30529;53.570;9.964;2022-11-20T05:35:43;2.30;99.90
44817;DHT22;30529;53.570;9.964;2022-11-20T05:38:09;2.30;99.90
44817;DHT22;30529;53.570;9.964;2022-11-20T05:40:35;2.30;99.90
44817;DHT22;30529;53.570;9.964;2022-11-20T05:43:02;2.30;99.90
44817;DHT22;30529;53.570;9.964;2022-11-20T05:45:28;2.30;99.90
44817;DHT22;30529;53.570;9.964;2022-11-20T05:47:58;2.30;99.90
44817;DHT22;30529;53.570;9.964;2022-11-20T05:50:25;2.30;99.90
44817;DHT22;30529;53.570;9.964;2022-11-20T05:52:51;2.30;99.90
44817;DHT22;30529;53.570;9.964;2022-11-20T05:55:17;2.30;99.90
44817;DHT22;30529;53.570;9.964;2022-11-20T05:57:44;2.30;99.90
44817;DHT22;30529;53.570;9.964;2022-11-20T06:00:10;2.30;99.90
44817;DHT22;30529;53.570;9.964;2022-11-20T06:02:37;2.30;99.90
44817;DHT22;30529;53.570;9.964;2022-11-20T06:05:03;2.30;99.90
44817;DHT22;30529;53.570;9.964;2022-11-20T06:07:29;2.30;99.90
44817;DHT22;30529;53.570;9.964;2022-11-20T06:09:56;2.30;99.90
44817;DHT22;30529;53.570;9.964;2022-11-20T06:12:22;2.20;99.90
44817;DHT22;30529;53.570;9.964;2022-11-20T06:14:48;2.30;99.90
44817;DHT22;30529;53.570;9.964;2022-11-20T06:17:14;2.20;99.90
44817;DHT22;30529;53.570;9.964;2022-11-20T06:19:40;2.20;99.90
44817;DHT22;30529;53.570;9.964;2022-11-20T06:22:06;2.20;99.90
44817;DHT22;30529;53.570;9.964;2022-11-20T06:24:33;2.20;99.90
44817;DHT22;30529;53.570;9.964;2022-11-20T06:26:59;2.20;99.90
44817;DHT22;30529;53.570;9.964;2022-11-20T06:29:25;2.30;99.90
44817;DHT22;30529;53.570;9.964;2022-11-20T06:31:51;2.20;99.90
44817;DHT22;30529;53.570;9.964;2022-11-20T06:34:17;2.30;99.90
44817;DHT22;30529;53.570;9.964;2022-11-20T06:36:43;2.30;99.90
44817;DHT22;30529;53.570;9.964;2022-11-20T06:39:10;2.30;99.90
44817;DHT22;30529;53.570;9.964;2022-11-20T06:41:36;2.30;99.90
44817;DHT22;30529;53.570;9.964;2022-11-20T06:44:04;2.20;99.90
44817;DHT22;30529;53.570;9.964;2022-11-20T06:46:31;2.20;99.90
44817;DHT22;30529;53.570;9.964;2022-11-20T06:48:58;2.20;99.90
44817;DHT22;30529;53.570;9.964;2022-11-20T06:51:24;2.20;99.90
44817;DHT22;30529;53.570;9.964;2022-11-20T06:53:50;2.20;99.90
44817;DHT22;30529;53.570;9.964;2022-11-20T06:56:16;2.20;99.90
44817;DHT22;30529;53.570;9.964;2022-11-20T06:58:42;2.10;99.90
44817;DHT22;30529;53.570;9.964;2022-11-20T07:01:10;2.10;99.90
44817;DHT22;30529;53.570;9.964;2022-11-20T07:03:38;2.10;99.90
44817;DHT22;30529;53.570;9.964;2022-11-20T07:06:05;2.10;99.90
44817;DHT22;30529;53.570;9.964;2022-11-20T07:08:32;2.20;99.90
44817;DHT22;30529;53.570;9.964;2022-11-20T07:11:00;2.20;99.90
44817;DHT22;30529;53.570;9.964;2022-11-20T07:13:28;2.20;99.90
44817;DHT22;30529;53.570;9.964;2022-11-20T07:15:54;2.20;99.90
44817;DHT22;30529;53.570;9.964;2022-11-20T07:18:21;2.20;99.90
44817;DHT22;30529;53.570;9.964;2022-11-20T07:20:47;2.30;99.90
44817;DHT22;30529;53.570;9.964;2022-11-20T07:23:13;2.40;99.90
44817;DHT22;30529;53.570;9.964;2022-11-20T07:25:39;2.40;99.90
44817;DHT22;30529;53.570;9.964;2022-11-20T07:28:05;2.40;99.90
44817;DHT22;30529;53.570;9.964;2022-11-20T07:30:32;2.40;99.90
44817;DHT22;30529;53.570;9.964;2022-11-20T07:32:58;2.40;99.90
44817;DHT22;30529;53.570;9.964;2022-11-20T07:35:25;2.40;99.90
44817;DHT22;30529;53.570;9.964;2022-11-20T07:37:51;2.40;99.90
44817;DHT22;30529;53.570;9.964;2022-11-20T07:40:18;2.40;99.90
44817;DHT22;30529;53.570;9.964;2022-11-20T07:42:51;2.40;99.90
44817;DHT22;30529;53.570;9.964;2022-11-20T07:45:18;2.50;99.90
44817;DHT22;30529;53.570;9.964;2022-11-20T07:47:45;2.60;99.90
44817;DHT22;30529;53.570;9.964;2022-11-20T07:50:12;2.60;99.90
44817;DHT22;30529;53.570;9.964;2022-11-20T07:52:38;2.60;99.90
44817;DHT22;30529;53.570;9.964;2022-11-20T07:55:05;2.60;99.90
44817;DHT22;30529;53.570;9.964;2022-11-20T07:57:31;2.70;99.90
44817;DHT22;30529;53.570;9.964;2022-11-20T07:59:57;2.60;99.90
44817;DHT22;30529;53.570;9.964;2022-11-20T08:02:24;2.50;99.90
44817;DHT22;30529;53.570;9.964;2022-11-20T08:04:50;2.50;99.90
44817;DHT22;30529;53.570;9.964;2022-11-20T08:07:16;2.50;99.90
44817;DHT22;30529;53.570;9.964;2022-11-20T08:09:42;2.50;99.90
44817;DHT22;30529;53.570;9.964;2022-11-20T08:12:17;2.50;99.90
44817;DHT22;30529;53.570;9.964;2022-11-20T08:15:03;2.50;99.90
44817;DHT22;30529;53.570;9.964;2022-11-20T08:17:29;2.50;99.90
44817;DHT22;30529;53.570;9.964;2022-11-20T08:19:55;2.50;99.90
44817;DHT22;30529;53.570;9.964;2022-11-20T08:22:22;2.60;99.90
44817;DHT22;30529;53.570;9.964;2022-11-20T08:24:48;2.60;99.90
44817;DHT22;30529;53.570;9.964;2022-11-20T08:27:14;2.60;99.90
44817;DHT22;30529;53.570;9.964;2022-11-20T08:29:40;2.60;99.90
44817;DHT22;30529;53.570;9.964;2022-11-20T08:32:06;2.60;99.90
44817;DHT22;30529;53.570;9.964;2022-11-20T08:34:33;2.60;99.90
44817;DHT22;30529;53.570;9.964;2022-11-20T08:36:59;2.70;99.90
44817;DHT22;30529;53.570;9.964;2022-11-20T08:39:25;2.60;99.90
44817;DHT22;30529;53.570;9.964;2022-11-20T08:41:51;2.60;99.90
44817;DHT22;30529;53.570;9.964;2022-11-20T08:44:17;2.60;99.90
44817;DHT22;30529;53.570;9.964;2022-11-20T08:46:43;2.60;99.90
44817;DHT22;30529;53.570;9.964;2022-11-20T08:49:11;2.60;99.90
44817;DHT22;30529;53.570;9.964;2022-11-20T08:51:38;2.50;99.90
44817;DHT22;30529;53.570;9.964;2022-11-20T08:54:04;2.60;99.90
44817;DHT22;30529;53.570;9.964;2022-11-20T08:56:31;2.70;99.90
44817;DHT22;30529;53.570;9.964;2022-11-20T08:58:58;2.80;99.90
44817;DHT22;30529;53.570;9.964;2022-11-20T09:01:25;2.80;99.90
44817;DHT22;30529;53.570;9.964;2022-11-20T09:03:52;3.00;99.90
44817;DHT22;30529;53.570;9.964;2022-11-20T09:06:18;3.00;99.90
44817;DHT22;30529;53.570;9.964;2022-11-20T09:08:44;3.10;99.90
44817;DHT22;30529;53.570;9.964;2022-11-20T09:11:10;3.10;99.90
44817;DHT22;30529;53.570;9.964;2022-11-20T09:13:37;3.10;99.90
44817;DHT22;30529;53.570;9.964;2022-11-20T09:16:08;3.10;99.90
44817;DHT22;30529;53.570;9.964;2022-11-20T09:18:35;3.10;99.90
44817;DHT22;30529;53.570;9.964;2022-11-20T09:21:06;3.10;99.90
44817;DHT22;30529;53.570;9.964;2022-11-20T09:23:34;3.00;99.90
44817;DHT22;30529;53.570;9.964;2022-11-20T09:26:02;3.00;99.90
44817;DHT22;30529;53.570;9.964;2022-11-20T09:28:29;3.00;99.90
44817;DHT22;30529;53.570;9.964;2022-11-20T09:30:56;3.00;99.90
44817;DHT22;30529;53.570;9.964;2022-11-20T09:33:22;3.00;99.90
44817;DHT22;30529;53.570;9.964;2022-11-20T09:35:48;3.00;99.90
44817;DHT22;30529;53.570;9.964;2022-11-20T09:38:14;3.00;99.90
44817;DHT22;30529;53.570;9.964;2022-11-20T09:40:47;2.90;99.90
44817;DHT22;30529;53.570;9.964;2022-11-20T09:43:28;2.80;99.90
44817;DHT22;30529;53.570;9.964;2022-11-20T09:46:20;2.70;99.90
44817;DHT22;30529;53.570;9.964;2022-11-20T09:52:01;2.80;99.90
44817;DHT22;30529;53.570;9.964;2022-11-20T09:54:35;2.90;99.90
44817;DHT22;30529;53.570;9.964;2022-11-20T09:57:10;3.00;99.90
44817;DHT22;30529;53.570;9.964;2022-11-20T09:59:45;3.20;99.90
44817;DHT22;30529;53.570;9.964;2022-11-20T10:05:15;3.50;99.90
44817;DHT22;30529;53.570;9.964;2022-11-20T10:10:44;3.70;99.90
44817;DHT22;30529;53.570;9.964;2022-11-20T10:25:19;3.50;99.90
44817;DHT22;30529;53.570;9.964;2022-11-20T10:30:17;3.20;99.90
44817;DHT22;30529;53.570;9.964;2022-11-20T10:32:54;3.30;99.90
44817;DHT22;30529;53.570;9.964;2022-11-20T10:35:32;3.30;99.90
44817;DHT22;30529;53.570;9.964;2022-11-20T10:38:03;3.20;99.90
44817;DHT22;30529;53.570;9.964;2022-11-20T10:40:44;3.30;99.90
44817;DHT22;30529;53.570;9.964;2022-11-20T10:43:33;3.40;99.90
44817;DHT22;30529;53.570;9.964;2022-11-20T10:46:08;3.40;99.90
44817;DHT22;30529;53.570;9.964;2022-11-20T10:48:36;3.40;99.90
44817;DHT22;30529;53.570;9.964;2022-11-20T10:56:47;3.60;99.90
44817;DHT22;30529;53.570;9.964;2022-11-20T10:59:41;3.60;99.90
44817;DHT22;30529;53.570;9.964;2022-11-20T11:02:29;3.80;99.90
44817;DHT22;30529;53.570;9.964;2022-11-20T11:04:58;3.80;99.90
44817;DHT22;30529;53.570;9.964;2022-11-20T11:07:37;3.80;99.90
44817;DHT22;30529;53.570;9.964;2022-11-20T11:13:30;3.70;99.90
44817;DHT22;30529;53.570;9.964;2022-11-20T11:15:57;3.40;99.90
44817;DHT22;30529;53.570;9.964;2022-11-20T11:18:28;3.30;99.90
44817;DHT22;30529;53.570;9.964;2022-11-20T11:20:57;3.20;99.90
44817;DHT22;30529;53.570;9.964;2022-11-20T11:23:35;3.20;99.90
44817;DHT22;30529;53.570;9.964;2022-11-20T11:26:04;3.50;99.90
44817;DHT22;30529;53.570;9.964;2022-11-20T11:28:31;3.60;99.90
44817;DHT22;30529;53.570;9.964;2022-11-20T11:30:57;3.80;99.90
44817;DHT22;30529;53.570;9.964;2022-11-20T11:33:24;3.80;99.90
44817;DHT22;30529;53.570;9.964;2022-11-20T11:35:56;3.70;99.90
44817;DHT22;30529;53.570;9.964;2022-11-20T11:38:43;3.60;99.90
44817;DHT22;30529;53.570;9.964;2022-11-20T11:41:18;3.60;99.90
44817;DHT22;30529;53.570;9.964;2022-11-20T11:43:53;3.60;99.90
44817;DHT22;30529;53.570;9.964;2022-11-20T11:46:40;3.70;99.90
44817;DHT22;30529;53.570;9.964;2022-11-20T11:49:19;3.80;99.90
44817;DHT22;30529;53.570;9.964;2022-11-20T11:52:16;3.90;99.90
44817;DHT22;30529;53.570;9.964;2022-11-20T11:54:56;3.90;99.90
44817;DHT22;30529;53.570;9.964;2022-11-20T11:57:40;3.80;99.90
44817;DHT22;30529;53.570;9.964;2022-11-20T12:00:19;3.60;99.90
44817;DHT22;30529;53.570;9.964;2022-11-20T12:05:26;3.70;99.90
44817;DHT22;30529;53.570;9.964;2022-11-20T12:16:01;3.80;99.90
44817;DHT22;30529;53.570;9.964;2022-11-20T12:18:28;3.90;99.90
44817;DHT22;30529;53.570;9.964;2022-11-20T12:21:03;3.90;99.90
44817;DHT22;30529;53.570;9.964;2022-11-20T12:32:15;3.80;99.90
44817;DHT22;30529;53.570;9.964;2022-11-20T12:40:40;3.70;99.90
44817;DHT22;30529;53.570;9.964;2022-11-20T12:42:55;3.60;99.90
44817;DHT22;30529;53.570;9.964;2022-11-20T12:58:30;4.00;99.90
44817;DHT22;30529;53.570;9.964;2022-11-20T13:03:41;4.00;99.90
44817;DHT22;30529;53.570;9.964;2022-11-20T13:06:15;3.90;99.90
44817;DHT22;30529;53.570;9.964;2022-11-20T13:09:04;4.00;99.90
44817;DHT22;30529;53.570;9.964;2022-11-20T13:11:42;4.00;99.90
44817;DHT22;30529;53.570;9.964;2022-11-20T13:19:38;4.20;99.90
44817;DHT22;30529;53.570;9.964;2022-11-20T13:22:04;4.10;99.90
44817;DHT22;30529;53.570;9.964;2022-11-20T13:24:31;4.10;99.90
44817;DHT22;30529;53.570;9.964;2022-11-20T13:27:03;4.20;99.90
44817;DHT22;30529;53.570;9.964;2022-11-20T13:29:31;4.20;99.90
44817;DHT22;30529;53.570;9.964;2022-11-20T13:32:18;4.20;99.90
44817;DHT22;30529;53.570;9.964;2022-11-20T13:34:52;4.20;99.90
44817;DHT22;30529;53.570;9.964;2022-11-20T13:43:21;4.10;99.90
44817;DHT22;30529;53.570;9.964;2022-11-20T13:45:56;4.00;99.90
44817;DHT22;30529;53.570;9.964;2022-11-20T13:48:25;4.00;99.90
44817;DHT22;30529;53.570;9.964;2022-11-20T13:51:03;4.00;99.90
44817;DHT22;30529;53.570;9.964;2022-11-20T14:02:27;3.70;99.90
44817;DHT22;30529;53.570;9.964;2022-11-20T14:04:57;3.70;99.90
44817;DHT22;30529;53.570;9.964;2022-11-20T14:07:27;3.70;99.90
44817;DHT22;30529;53.570;9.964;2022-11-20T14:09:57;3.70;99.90
44817;DHT22;30529;53.570;9.964;2022-11-20T14:12:33;3.70;99.90
44817;DHT22;30529;53.570;9.964;2022-11-20T14:14:59;3.70;99.90
44817;DHT22;30529;53.570;9.964;2022-11-20T14:17:32;3.70;99.90
44817;DHT22;30529;53.570;9.964;2022-11-20T14:20:11;3.70;99.90
44817;DHT22;30529;53.570;9.964;2022-11-20T14:22:38;3.70;99.90
44817;DHT22;30529;53.570;9.964;2022-11-20T14:27:52;3.80;99.90
44817;DHT22;30529;53.570;9.964;2022-11-20T14:30:23;3.70;99.90
44817;DHT22;30529;53.570;9.964;2022-11-20T14:32:51;3.70;99.90
44817;DHT22;30529;53.570;9.964;2022-11-20T14:35:28;3.60;99.90
44817;DHT22;30529;53.570;9.964;2022-11-20T14:37:55;3.60;99.90
44817;DHT22;30529;53.570;9.964;2022-11-20T14:40:32;3.50;99.90
44817;DHT22;30529;53.570;9.964;2022-11-20T14:43:01;3.50;99.90
44817;DHT22;30529;53.570;9.964;2022-11-20T14:45:28;3.50;99.90
44817;DHT22;30529;53.570;9.964;2022-11-20T14:47:56;3.40;99.90
44817;DHT22;30529;53.570;9.964;2022-11-20T14:50:27;3.30;99.90
44817;DHT22;30529;53.570;9.964;2022-11-20T14:52:59;3.20;99.90
44817;DHT22;30529;53.570;9.964;2022-11-20T14:55:27;3.00;99.90
44817;DHT22;30529;53.570;9.964;2022-11-20T14:58:02;2.80;99.90
44817;DHT22;30529;53.570;9.964;2022-11-20T15:00:30;2.70;99.90
44817;DHT22;30529;53.570;9.964;2022-11-20T15:02:56;2.70;99.90
44817;DHT22;30529;53.570;9.964;2022-11-20T15:08:09;2.60;99.90
44817;DHT22;30529;53.570;9.964;2022-11-20T15:10:36;2.50;99.90
44817;DHT22;30529;53.570;9.964;2022-11-20T15:13:16;2.40;99.90
44817;DHT22;30529;53.570;9.964;2022-11-20T15:15:48;2.40;99.90
44817;DHT22;30529;53.570;9.964;2022-11-20T15:18:28;2.40;99.90
44817;DHT22;30529;53.570;9.964;2022-11-20T15:20:57;2.30;99.90
44817;DHT22;30529;53.570;9.964;2022-11-20T15:23:23;2.30;99.90
44817;DHT22;30529;53.570;9.964;2022-11-20T15:25:50;2.30;99.90
44817;DHT22;30529;53.570;9.964;2022-11-20T15:28:18;2.40;99.90
44817;DHT22;30529;53.570;9.964;2022-11-20T15:30:46;2.50;99.90
44817;DHT22;30529;53.570;9.964;2022-11-20T15:33:12;2.60;99.90
44817;DHT22;30529;53.570;9.964;2022-11-20T15:35:39;2.70;99.90
44817;DHT22;30529;53.570;9.964;2022-11-20T15:38:05;2.70;99.90
44817;DHT22;30529;53.570;9.964;2022-11-20T15:40:31;2.80;99.90
44817;DHT22;30529;53.570;9.964;2022-11-20T15:42:57;2.80;99.90
44817;DHT22;30529;53.570;9.964;2022-11-20T15:45:41;2.80;99.90
44817;DHT22;30529;53.570;9.964;2022-11-20T15:48:14;2.80;99.90
44817;DHT22;30529;53.570;9.964;2022-11-20T15:53:19;2.80;99.90
44817;DHT22;30529;53.570;9.964;2022-11-20T15:55:45;2.80;99.90
44817;DHT22;30529;53.570;9.964;2022-11-20T15:58:12;2.90;99.90
44817;DHT22;30529;53.570;9.964;2022-11-20T16:00:38;2.90;99.90
44817;DHT22;30529;53.570;9.964;2022-11-20T16:03:04;2.90;99.90
44817;DHT22;30529;53.570;9.964;2022-11-20T16:05:30;3.00;99.90
44817;DHT22;30529;53.570;9.964;2022-11-20T16:07:56;3.10;99.90
44817;DHT22;30529;53.570;9.964;2022-11-20T16:10:23;3.10;99.90
44817;DHT22;30529;53.570;9.964;2022-11-20T16:12:49;3.10;99.90
44817;DHT22;30529;53.570;9.964;2022-11-20T16:15:34;3.10;99.90
44817;DHT22;30529;53.570;9.964;2022-11-20T16:18:18;3.10;99.90
44817;DHT22;30529;53.570;9.964;2022-11-20T16:20:50;3.20;99.90
44817;DHT22;30529;53.570;9.964;2022-11-20T16:23:17;3.20;99.90
44817;DHT22;30529;53.570;9.964;2022-11-20T16:25:43;3.20;99.90
44817;DHT22;30529;53.570;9.964;2022-11-20T16:28:10;3.20;99.90
44817;DHT22;30529;53.570;9.964;2022-11-20T16:30:37;3.20;99.90
44817;DHT22;30529;53.570;9.964;2022-11-20T16:33:04;3.20;99.90
44817;DHT22;30529;53.570;9.964;2022-11-20T16:35:30;3.20;99.90
44817;DHT22;30529;53.570;9.964;2022-11-20T16:37:57;3.30;99.90
44817;DHT22;30529;53.570;9.964;2022-11-20T16:40:24;3.20;99.90
44817;DHT22;30529;53.570;9.964;2022-11-20T16:42:54;3.20;99.90
44817;DHT22;30529;53.570;9.964;2022-11-20T16:45:21;3.20;99.90
44817;DHT22;30529;53.570;9.964;2022-11-20T16:47:47;3.20;99.90
44817;DHT22;30529;53.570;9.964;2022-11-20T16:50:13;3.20;99.90
44817;DHT22;30529;53.570;9.964;2022-11-20T16:52:39;3.20;99.90
44817;DHT22;30529;53.570;9.964;2022-11-20T16:55:06;3.20;99.90
44817;DHT22;30529;53.570;9.964;2022-11-20T16:57:32;3.10;99.90
44817;DHT22;30529;53.570;9.964;2022-11-20T16:59:59;3.10;99.90
44817;DHT22;30529;53.570;9.964;2022-11-20T17:02:26;3.10;99.90
44817;DHT22;30529;53.570;9.964;2022-11-20T17:04:52;3.10;99.90
44817;DHT22;30529;53.570;9.964;2022-11-20T17:07:18;3.20;99.90
44817;DHT22;30529;53.570;9.964;2022-11-20T17:09:44;3.20;99.90
44817;DHT22;30529;53.570;9.964;2022-11-20T17:12:11;3.20;99.90
44817;DHT22;30529;53.570;9.964;2022-11-20T17:14:41;3.20;99.90
44817;DHT22;30529;53.570;9.964;2022-11-20T17:17:07;3.30;99.90
44817;DHT22;30529;53.570;9.964;2022-11-20T17:19:33;3.40;99.90
44817;DHT22;30529;53.570;9.964;2022-11-20T17:21:59;3.40;99.90
44817;DHT22;30529;53.570;9.964;2022-11-20T17:24:25;3.40;99.90
44817;DHT22;30529;53.570;9.964;2022-11-20T17:26:52;3.40;99.90
44817;DHT22;30529;53.570;9.964;2022-11-20T17:29:18;3.30;99.90
44817;DHT22;30529;53.570;9.964;2022-11-20T17:31:49;3.30;99.90
44817;DHT22;30529;53.570;9.964;2022-11-20T17:34:16;3.30;99.90
44817;DHT22;30529;53.570;9.964;2022-11-20T17:36:42;3.20;99.90
44817;DHT22;30529;53.570;9.964;2022-11-20T17:39:13;3.20;99.90
44817;DHT22;30529;53.570;9.964;2022-11-20T17:41:39;3.10;99.90
44817;DHT22;30529;53.570;9.964;2022-11-20T17:44:08;3.10;99.90